sensor_id;sensor_type;location;lat;lon;timestamp;P1;durP1;ratioP1;P2;durP2;ratioP2
50363;SDS011;36272;59.400;17.982;2022-08-19T00:00:45;43.70;;;20.55;;
50363;SDS011;36272;59.400;17.982;2022-08-19T00:05:46;36.65;;;21.00;;
50363;SDS011;36272;59.400;17.982;2022-08-19T00:10:48;42.58;;;20.25;;
50363;SDS011;36272;59.400;17.982;2022-08-19T00:15:50;50.47;;;21.52;;
50363;SDS011;36272;59.400;17.982;2022-08-19T00:20:52;37.03;;;20.38;;
50363;SDS011;36272;59.400;17.982;2022-08-19T00:25:53;47.92;;;23.25;;
50363;SDS011;36272;59.400;17.982;2022-08-19T00:30:55;43.92;;;23.40;;
50363;SDS011;36272;59.400;17.982;2022-08-19T00:36:00;44.37;;;22.73;;
50363;SDS011;36272;59.400;17.982;2022-08-19T00:41:05;46.53;;;24.50;;
50363;SDS011;36272;59.400;17.982;2022-08-19T00:46:07;48.67;;;25.00;;
50363;SDS011;36272;59.400;17.982;2022-08-19T00:51:09;47.38;;;26.48;;
50363;SDS011;36272;59.400;17.982;2022-08-19T00:56:11;46.53;;;25.98;;
50363;SDS011;36272;59.400;17.982;2022-08-19T01:01:13;51.83;;;27.48;;
50363;SDS011;36272;59.400;17.982;2022-08-19T01:06:15;49.13;;;25.30;;
50363;SDS011;36272;59.400;17.982;2022-08-19T01:11:17;56.15;;;28.20;;
50363;SDS011;36272;59.400;17.982;2022-08-19T01:16:19;46.22;;;27.63;;
50363;SDS011;36272;59.400;17.982;2022-08-19T01:21:40;50.25;;;26.92;;
50363;SDS011;36272;59.400;17.982;2022-08-19T01:26:47;42.47;;;25.00;;
50363;SDS011;36272;59.400;17.982;2022-08-19T01:31:49;43.10;;;24.38;;
50363;SDS011;36272;59.400;17.982;2022-08-19T01:36:54;41.50;;;25.75;;
50363;SDS011;36272;59.400;17.982;2022-08-19T01:41:56;34.40;;;22.15;;
50363;SDS011;36272;59.400;17.982;2022-08-19T01:46:57;40.63;;;26.50;;
50363;SDS011;36272;59.400;17.982;2022-08-19T01:52:00;37.65;;;24.42;;
50363;SDS011;36272;59.400;17.982;2022-08-19T01:57:07;33.25;;;23.67;;
50363;SDS011;36272;59.400;17.982;2022-08-19T02:02:12;36.88;;;23.67;;
50363;SDS011;36272;59.400;17.982;2022-08-19T02:07:14;33.67;;;21.02;;
50363;SDS011;36272;59.400;17.982;2022-08-19T02:12:16;36.70;;;23.65;;
50363;SDS011;36272;59.400;17.982;2022-08-19T02:17:18;40.10;;;24.38;;
50363;SDS011;36272;59.400;17.982;2022-08-19T02:22:19;41.28;;;24.85;;
50363;SDS011;36272;59.400;17.982;2022-08-19T02:27:22;40.83;;;24.10;;
50363;SDS011;36272;59.400;17.982;2022-08-19T02:32:24;44.85;;;25.20;;
50363;SDS011;36272;59.400;17.982;2022-08-19T02:37:26;40.90;;;26.60;;
50363;SDS011;36272;59.400;17.982;2022-08-19T02:42:46;48.63;;;26.80;;
50363;SDS011;36272;59.400;17.982;2022-08-19T02:47:48;41.08;;;25.30;;
50363;SDS011;36272;59.400;17.982;2022-08-19T02:52:49;43.22;;;25.17;;
50363;SDS011;36272;59.400;17.982;2022-08-19T02:57:51;37.08;;;23.33;;
50363;SDS011;36272;59.400;17.982;2022-08-19T03:02:53;42.55;;;27.50;;
50363;SDS011;36272;59.400;17.982;2022-08-19T03:07:54;42.60;;;25.45;;
50363;SDS011;36272;59.400;17.982;2022-08-19T03:12:56;43.88;;;26.20;;
50363;SDS011;36272;59.400;17.982;2022-08-19T03:17:58;47.30;;;26.92;;
50363;SDS011;36272;59.400;17.982;2022-08-19T03:22:59;41.85;;;26.92;;
50363;SDS011;36272;59.400;17.982;2022-08-19T03:28:01;55.88;;;27.35;;
50363;SDS011;36272;59.400;17.982;2022-08-19T03:33:03;40.42;;;25.50;;
50363;SDS011;36272;59.400;17.982;2022-08-19T03:38:04;42.47;;;25.38;;
50363;SDS011;36272;59.400;17.982;2022-08-19T03:43:07;51.53;;;27.10;;
50363;SDS011;36272;59.400;17.982;2022-08-19T03:48:09;49.25;;;27.40;;
50363;SDS011;36272;59.400;17.982;2022-08-19T03:53:11;47.80;;;26.42;;
50363;SDS011;36272;59.400;17.982;2022-08-19T03:58:12;42.25;;;25.77;;
50363;SDS011;36272;59.400;17.982;2022-08-19T04:03:14;51.78;;;28.10;;
50363;SDS011;36272;59.400;17.982;2022-08-19T04:08:16;43.65;;;26.95;;
50363;SDS011;36272;59.400;17.982;2022-08-19T04:13:21;38.97;;;25.17;;
50363;SDS011;36272;59.400;17.982;2022-08-19T04:18:23;44.40;;;26.55;;
50363;SDS011;36272;59.400;17.982;2022-08-19T04:23:25;41.08;;;24.75;;
50363;SDS011;36272;59.400;17.982;2022-08-19T04:28:28;46.00;;;25.42;;
50363;SDS011;36272;59.400;17.982;2022-08-19T04:33:30;44.72;;;26.42;;
50363;SDS011;36272;59.400;17.982;2022-08-19T04:38:31;42.30;;;25.35;;
50363;SDS011;36272;59.400;17.982;2022-08-19T04:43:35;53.03;;;27.98;;
50363;SDS011;36272;59.400;17.982;2022-08-19T04:48:38;51.47;;;27.67;;
50363;SDS011;36272;59.400;17.982;2022-08-19T04:53:41;39.53;;;23.88;;
50363;SDS011;36272;59.400;17.982;2022-08-19T04:58:44;49.03;;;28.00;;
50363;SDS011;36272;59.400;17.982;2022-08-19T05:03:46;41.05;;;21.98;;
50363;SDS011;36272;59.400;17.982;2022-08-19T05:08:48;38.45;;;22.85;;
50363;SDS011;36272;59.400;17.982;2022-08-19T05:13:51;40.05;;;24.05;;
50363;SDS011;36272;59.400;17.982;2022-08-19T05:18:53;40.70;;;23.15;;
50363;SDS011;36272;59.400;17.982;2022-08-19T05:24:14;36.17;;;22.73;;
50363;SDS011;36272;59.400;17.982;2022-08-19T05:29:18;43.72;;;23.95;;
50363;SDS011;36272;59.400;17.982;2022-08-19T05:34:21;48.13;;;25.67;;
50363;SDS011;36272;59.400;17.982;2022-08-19T05:39:29;45.28;;;26.65;;
50363;SDS011;36272;59.400;17.982;2022-08-19T05:49:36;43.35;;;25.00;;
50363;SDS011;36272;59.400;17.982;2022-08-19T05:54:39;41.05;;;24.10;;
50363;SDS011;36272;59.400;17.982;2022-08-19T05:59:42;39.33;;;22.85;;
50363;SDS011;36272;59.400;17.982;2022-08-19T06:04:45;37.15;;;23.48;;
50363;SDS011;36272;59.400;17.982;2022-08-19T06:09:47;32.65;;;19.70;;
50363;SDS011;36272;59.400;17.982;2022-08-19T06:14:49;31.38;;;19.58;;
50363;SDS011;36272;59.400;17.982;2022-08-19T06:19:52;34.58;;;20.17;;
50363;SDS011;36272;59.400;17.982;2022-08-19T06:24:54;36.22;;;21.05;;
50363;SDS011;36272;59.400;17.982;2022-08-19T06:29:56;40.65;;;21.27;;
50363;SDS011;36272;59.400;17.982;2022-08-19T06:34:58;34.35;;;21.52;;
50363;SDS011;36272;59.400;17.982;2022-08-19T06:40:00;28.10;;;18.88;;
50363;SDS011;36272;59.400;17.982;2022-08-19T06:45:02;27.27;;;18.38;;
50363;SDS011;36272;59.400;17.982;2022-08-19T06:50:05;28.25;;;16.70;;
50363;SDS011;36272;59.400;17.982;2022-08-19T06:55:07;24.63;;;15.07;;
50363;SDS011;36272;59.400;17.982;2022-08-19T07:00:09;24.05;;;16.33;;
50363;SDS011;36272;59.400;17.982;2022-08-19T07:05:14;26.25;;;14.40;;
50363;SDS011;36272;59.400;17.982;2022-08-19T07:10:15;27.75;;;13.43;;
50363;SDS011;36272;59.400;17.982;2022-08-19T07:15:17;24.15;;;12.40;;
50363;SDS011;36272;59.400;17.982;2022-08-19T07:20:19;19.65;;;12.45;;
50363;SDS011;36272;59.400;17.982;2022-08-19T07:25:20;27.40;;;12.52;;
50363;SDS011;36272;59.400;17.982;2022-08-19T07:30:23;20.40;;;12.50;;
50363;SDS011;36272;59.400;17.982;2022-08-19T07:35:25;21.58;;;12.00;;
50363;SDS011;36272;59.400;17.982;2022-08-19T07:40:26;21.15;;;12.45;;
50363;SDS011;36272;59.400;17.982;2022-08-19T07:45:28;21.10;;;11.63;;
50363;SDS011;36272;59.400;17.982;2022-08-19T07:50:30;21.40;;;10.65;;
50363;SDS011;36272;59.400;17.982;2022-08-19T07:55:32;28.50;;;10.98;;
50363;SDS011;36272;59.400;17.982;2022-08-19T08:00:35;19.70;;;10.60;;
50363;SDS011;36272;59.400;17.982;2022-08-19T08:05:37;17.52;;;9.45;;
50363;SDS011;36272;59.400;17.982;2022-08-19T08:10:57;17.52;;;7.95;;
50363;SDS011;36272;59.400;17.982;2022-08-19T08:15:59;21.45;;;8.38;;
50363;SDS011;36272;59.400;17.982;2022-08-19T08:21:02;20.83;;;8.43;;
50363;SDS011;36272;59.400;17.982;2022-08-19T08:26:04;16.02;;;8.02;;
50363;SDS011;36272;59.400;17.982;2022-08-19T08:31:05;20.05;;;7.85;;
50363;SDS011;36272;59.400;17.982;2022-08-19T08:36:07;25.27;;;7.22;;
50363;SDS011;36272;59.400;17.982;2022-08-19T08:46:26;26.50;;;7.43;;
50363;SDS011;36272;59.400;17.982;2022-08-19T08:51:37;19.90;;;7.32;;
50363;SDS011;36272;59.400;17.982;2022-08-19T08:56:43;15.63;;;6.70;;
50363;SDS011;36272;59.400;17.982;2022-08-19T09:01:46;27.48;;;7.13;;
50363;SDS011;36272;59.400;17.982;2022-08-19T09:12:28;15.02;;;7.25;;
50363;SDS011;36272;59.400;17.982;2022-08-19T09:17:43;13.00;;;6.45;;
50363;SDS011;36272;59.400;17.982;2022-08-19T09:22:45;17.40;;;6.07;;
50363;SDS011;36272;59.400;17.982;2022-08-19T09:27:47;20.50;;;7.00;;
50363;SDS011;36272;59.400;17.982;2022-08-19T09:32:50;17.13;;;6.10;;
50363;SDS011;36272;59.400;17.982;2022-08-19T09:37:55;15.65;;;6.15;;
50363;SDS011;36272;59.400;17.982;2022-08-19T09:42:58;19.45;;;7.38;;
50363;SDS011;36272;59.400;17.982;2022-08-19T09:48:08;15.98;;;5.60;;
50363;SDS011;36272;59.400;17.982;2022-08-19T09:53:10;17.13;;;6.50;;
50363;SDS011;36272;59.400;17.982;2022-08-19T09:58:11;18.50;;;5.82;;
50363;SDS011;36272;59.400;17.982;2022-08-19T10:03:13;15.55;;;6.00;;
50363;SDS011;36272;59.400;17.982;2022-08-19T10:08:18;13.52;;;5.60;;
50363;SDS011;36272;59.400;17.982;2022-08-19T10:13:24;19.17;;;6.53;;
50363;SDS011;36272;59.400;17.982;2022-08-19T10:23:28;15.27;;;5.82;;
50363;SDS011;36272;59.400;17.982;2022-08-19T10:28:35;19.17;;;5.90;;
50363;SDS011;36272;59.400;17.982;2022-08-19T10:33:40;12.23;;;5.85;;
50363;SDS011;36272;59.400;17.982;2022-08-19T10:38:42;10.60;;;5.45;;
50363;SDS011;36272;59.400;17.982;2022-08-19T10:43:46;20.40;;;6.13;;
50363;SDS011;36272;59.400;17.982;2022-08-19T10:48:49;13.32;;;5.55;;
50363;SDS011;36272;59.400;17.982;2022-08-19T10:53:51;15.23;;;6.30;;
50363;SDS011;36272;59.400;17.982;2022-08-19T10:58:56;13.88;;;5.63;;
50363;SDS011;36272;59.400;17.982;2022-08-19T11:04:02;15.95;;;6.03;;
50363;SDS011;36272;59.400;17.982;2022-08-19T11:09:05;16.88;;;5.75;;
50363;SDS011;36272;59.400;17.982;2022-08-19T11:14:08;12.65;;;5.15;;
50363;SDS011;36272;59.400;17.982;2022-08-19T11:19:12;17.00;;;5.40;;
50363;SDS011;36272;59.400;17.982;2022-08-19T11:24:15;17.75;;;5.45;;
50363;SDS011;36272;59.400;17.982;2022-08-19T11:29:20;10.90;;;5.53;;
50363;SDS011;36272;59.400;17.982;2022-08-19T11:34:23;12.23;;;6.03;;
50363;SDS011;36272;59.400;17.982;2022-08-19T11:39:29;14.35;;;5.30;;
50363;SDS011;36272;59.400;17.982;2022-08-19T11:44:32;13.23;;;5.10;;
50363;SDS011;36272;59.400;17.982;2022-08-19T11:49:34;15.50;;;5.60;;
50363;SDS011;36272;59.400;17.982;2022-08-19T11:54:37;13.30;;;5.38;;
50363;SDS011;36272;59.400;17.982;2022-08-19T11:59:39;14.07;;;5.00;;
50363;SDS011;36272;59.400;17.982;2022-08-19T12:04:40;18.58;;;5.30;;
50363;SDS011;36272;59.400;17.982;2022-08-19T12:09:42;10.98;;;4.55;;
50363;SDS011;36272;59.400;17.982;2022-08-19T12:14:44;11.80;;;5.15;;
50363;SDS011;36272;59.400;17.982;2022-08-19T12:19:51;15.82;;;5.07;;
50363;SDS011;36272;59.400;17.982;2022-08-19T12:24:53;10.90;;;4.82;;
50363;SDS011;36272;59.400;17.982;2022-08-19T12:29:56;12.32;;;5.30;;
50363;SDS011;36272;59.400;17.982;2022-08-19T12:34:58;19.23;;;4.80;;
50363;SDS011;36272;59.400;17.982;2022-08-19T12:40:00;14.73;;;5.00;;
50363;SDS011;36272;59.400;17.982;2022-08-19T12:45:03;13.45;;;4.78;;
50363;SDS011;36272;59.400;17.982;2022-08-19T12:50:05;11.20;;;5.53;;
50363;SDS011;36272;59.400;17.982;2022-08-19T12:55:09;12.50;;;4.90;;
50363;SDS011;36272;59.400;17.982;2022-08-19T13:00:14;11.50;;;5.20;;
50363;SDS011;36272;59.400;17.982;2022-08-19T13:05:19;11.98;;;4.28;;
50363;SDS011;36272;59.400;17.982;2022-08-19T13:10:24;10.35;;;4.72;;
50363;SDS011;36272;59.400;17.982;2022-08-19T13:15:28;8.23;;;4.10;;
50363;SDS011;36272;59.400;17.982;2022-08-19T13:20:34;9.63;;;5.20;;
50363;SDS011;36272;59.400;17.982;2022-08-19T13:25:37;11.38;;;4.93;;
50363;SDS011;36272;59.400;17.982;2022-08-19T13:30:39;12.32;;;4.80;;
50363;SDS011;36272;59.400;17.982;2022-08-19T13:35:59;15.48;;;4.78;;
50363;SDS011;36272;59.400;17.982;2022-08-19T13:41:04;10.23;;;4.63;;
50363;SDS011;36272;59.400;17.982;2022-08-19T13:46:10;11.23;;;4.70;;
50363;SDS011;36272;59.400;17.982;2022-08-19T13:51:15;11.63;;;4.90;;
50363;SDS011;36272;59.400;17.982;2022-08-19T13:56:19;12.57;;;4.80;;
50363;SDS011;36272;59.400;17.982;2022-08-19T14:01:21;11.18;;;5.03;;
50363;SDS011;36272;59.400;17.982;2022-08-19T14:06:23;11.13;;;4.90;;
50363;SDS011;36272;59.400;17.982;2022-08-19T14:11:26;11.52;;;4.97;;
50363;SDS011;36272;59.400;17.982;2022-08-19T14:16:28;16.23;;;4.40;;
50363;SDS011;36272;59.400;17.982;2022-08-19T14:26:33;12.25;;;4.65;;
50363;SDS011;36272;59.400;17.982;2022-08-19T14:31:35;11.05;;;4.80;;
50363;SDS011;36272;59.400;17.982;2022-08-19T14:36:36;12.00;;;4.80;;
50363;SDS011;36272;59.400;17.982;2022-08-19T14:41:39;15.15;;;5.28;;
50363;SDS011;36272;59.400;17.982;2022-08-19T14:46:42;17.60;;;4.80;;
50363;SDS011;36272;59.400;17.982;2022-08-19T14:51:45;17.27;;;6.43;;
50363;SDS011;36272;59.400;17.982;2022-08-19T14:56:48;12.77;;;5.67;;
50363;SDS011;36272;59.400;17.982;2022-08-19T15:01:49;14.75;;;5.93;;
50363;SDS011;36272;59.400;17.982;2022-08-19T15:06:51;19.52;;;5.68;;
50363;SDS011;36272;59.400;17.982;2022-08-19T15:11:53;12.77;;;5.20;;
50363;SDS011;36272;59.400;17.982;2022-08-19T15:16:54;22.90;;;5.72;;
50363;SDS011;36272;59.400;17.982;2022-08-19T15:21:56;11.13;;;5.18;;
50363;SDS011;36272;59.400;17.982;2022-08-19T15:26:58;11.27;;;5.43;;
50363;SDS011;36272;59.400;17.982;2022-08-19T15:31:59;10.60;;;4.90;;
50363;SDS011;36272;59.400;17.982;2022-08-19T15:37:01;15.40;;;5.47;;
50363;SDS011;36272;59.400;17.982;2022-08-19T15:42:06;11.40;;;6.18;;
50363;SDS011;36272;59.400;17.982;2022-08-19T15:47:08;13.63;;;6.03;;
50363;SDS011;36272;59.400;17.982;2022-08-19T15:52:10;16.73;;;5.50;;
50363;SDS011;36272;59.400;17.982;2022-08-19T15:57:11;13.63;;;4.95;;
50363;SDS011;36272;59.400;17.982;2022-08-19T16:02:23;14.23;;;5.70;;
50363;SDS011;36272;59.400;17.982;2022-08-19T16:07:44;19.85;;;5.82;;
50363;SDS011;36272;59.400;17.982;2022-08-19T16:12:47;13.93;;;7.07;;
50363;SDS011;36272;59.400;17.982;2022-08-19T16:17:49;12.80;;;4.97;;
50363;SDS011;36272;59.400;17.982;2022-08-19T16:22:50;16.67;;;5.57;;
50363;SDS011;36272;59.400;17.982;2022-08-19T16:27:53;14.52;;;5.68;;
50363;SDS011;36272;59.400;17.982;2022-08-19T16:32:55;11.88;;;5.50;;
50363;SDS011;36272;59.400;17.982;2022-08-19T16:37:56;12.05;;;5.53;;
50363;SDS011;36272;59.400;17.982;2022-08-19T16:42:58;16.73;;;5.85;;
50363;SDS011;36272;59.400;17.982;2022-08-19T16:48:01;19.52;;;12.45;;
50363;SDS011;36272;59.400;17.982;2022-08-19T16:53:05;45.88;;;26.38;;
50363;SDS011;36272;59.400;17.982;2022-08-19T16:58:07;25.90;;;7.03;;
50363;SDS011;36272;59.400;17.982;2022-08-19T17:03:09;12.40;;;7.15;;
50363;SDS011;36272;59.400;17.982;2022-08-19T17:08:11;15.68;;;7.30;;
50363;SDS011;36272;59.400;17.982;2022-08-19T17:13:14;17.30;;;7.10;;
50363;SDS011;36272;59.400;17.982;2022-08-19T17:18:16;16.52;;;7.75;;
50363;SDS011;36272;59.400;17.982;2022-08-19T17:23:19;15.80;;;8.40;;
50363;SDS011;36272;59.400;17.982;2022-08-19T17:28:23;18.13;;;8.00;;
50363;SDS011;36272;59.400;17.982;2022-08-19T17:33:27;22.25;;;7.90;;
50363;SDS011;36272;59.400;17.982;2022-08-19T17:38:29;16.65;;;8.93;;
50363;SDS011;36272;59.400;17.982;2022-08-19T17:43:31;24.35;;;7.90;;
50363;SDS011;36272;59.400;17.982;2022-08-19T17:48:34;19.35;;;9.30;;
50363;SDS011;36272;59.400;17.982;2022-08-19T17:53:38;27.35;;;9.40;;
50363;SDS011;36272;59.400;17.982;2022-08-19T17:58:41;23.60;;;9.15;;
50363;SDS011;36272;59.400;17.982;2022-08-19T18:03:44;18.60;;;8.38;;
50363;SDS011;36272;59.400;17.982;2022-08-19T18:08:46;25.98;;;10.30;;
50363;SDS011;36272;59.400;17.982;2022-08-19T18:13:49;19.83;;;10.02;;
50363;SDS011;36272;59.400;17.982;2022-08-19T18:18:50;22.52;;;10.23;;
50363;SDS011;36272;59.400;17.982;2022-08-19T18:23:54;19.27;;;9.70;;
50363;SDS011;36272;59.400;17.982;2022-08-19T18:28:56;20.83;;;10.43;;
50363;SDS011;36272;59.400;17.982;2022-08-19T18:33:58;23.70;;;10.95;;
50363;SDS011;36272;59.400;17.982;2022-08-19T18:39:00;21.63;;;10.55;;
50363;SDS011;36272;59.400;17.982;2022-08-19T18:44:20;21.83;;;10.48;;
50363;SDS011;36272;59.400;17.982;2022-08-19T18:49:40;18.30;;;10.45;;
50363;SDS011;36272;59.400;17.982;2022-08-19T18:54:42;24.05;;;11.35;;
50363;SDS011;36272;59.400;17.982;2022-08-19T18:59:48;23.67;;;11.82;;
50363;SDS011;36272;59.400;17.982;2022-08-19T19:04:50;19.80;;;11.20;;
50363;SDS011;36272;59.400;17.982;2022-08-19T19:09:51;21.85;;;11.20;;
50363;SDS011;36272;59.400;17.982;2022-08-19T19:14:53;21.30;;;10.73;;
50363;SDS011;36272;59.400;17.982;2022-08-19T19:19:55;25.10;;;11.32;;
50363;SDS011;36272;59.400;17.982;2022-08-19T19:24:56;22.95;;;12.75;;
50363;SDS011;36272;59.400;17.982;2022-08-19T19:29:59;17.95;;;11.82;;
50363;SDS011;36272;59.400;17.982;2022-08-19T19:35:01;22.05;;;12.70;;
50363;SDS011;36272;59.400;17.982;2022-08-19T19:40:05;28.60;;;12.38;;
50363;SDS011;36272;59.400;17.982;2022-08-19T19:45:07;19.98;;;11.60;;
50363;SDS011;36272;59.400;17.982;2022-08-19T19:50:12;21.73;;;12.80;;
50363;SDS011;36272;59.400;17.982;2022-08-19T19:55:16;26.58;;;12.82;;
50363;SDS011;36272;59.400;17.982;2022-08-19T20:00:18;28.63;;;12.90;;
50363;SDS011;36272;59.400;17.982;2022-08-19T20:05:20;22.17;;;12.10;;
50363;SDS011;36272;59.400;17.982;2022-08-19T20:10:23;18.95;;;12.75;;
50363;SDS011;36272;59.400;17.982;2022-08-19T20:15:25;25.05;;;13.40;;
50363;SDS011;36272;59.400;17.982;2022-08-19T20:20:27;19.88;;;13.05;;
50363;SDS011;36272;59.400;17.982;2022-08-19T20:25:29;30.25;;;13.60;;
50363;SDS011;36272;59.400;17.982;2022-08-19T20:30:32;22.80;;;13.68;;
50363;SDS011;36272;59.400;17.982;2022-08-19T20:35:34;27.48;;;13.98;;
50363;SDS011;36272;59.400;17.982;2022-08-19T20:40:37;19.83;;;13.00;;
50363;SDS011;36272;59.400;17.982;2022-08-19T20:45:39;28.02;;;13.57;;
50363;SDS011;36272;59.400;17.982;2022-08-19T20:50:41;25.63;;;12.75;;
50363;SDS011;36272;59.400;17.982;2022-08-19T20:55:43;24.38;;;13.23;;
50363;SDS011;36272;59.400;17.982;2022-08-19T21:00:47;25.38;;;13.52;;
50363;SDS011;36272;59.400;17.982;2022-08-19T21:05:49;18.02;;;13.07;;
50363;SDS011;36272;59.400;17.982;2022-08-19T21:10:52;22.92;;;13.13;;
50363;SDS011;36272;59.400;17.982;2022-08-19T21:15:54;27.83;;;13.55;;
50363;SDS011;36272;59.400;17.982;2022-08-19T21:20:56;19.70;;;12.85;;
50363;SDS011;36272;59.400;17.982;2022-08-19T21:25:58;23.05;;;12.82;;
50363;SDS011;36272;59.400;17.982;2022-08-19T21:31:02;19.92;;;13.02;;
50363;SDS011;36272;59.400;17.982;2022-08-19T21:36:05;33.03;;;13.57;;
50363;SDS011;36272;59.400;17.982;2022-08-19T21:41:07;25.80;;;14.70;;
50363;SDS011;36272;59.400;17.982;2022-08-19T21:46:09;24.15;;;13.30;;
50363;SDS011;36272;59.400;17.982;2022-08-19T21:51:11;21.38;;;14.18;;
50363;SDS011;36272;59.400;17.982;2022-08-19T21:56:12;23.20;;;14.30;;
50363;SDS011;36272;59.400;17.982;2022-08-19T22:01:14;21.05;;;13.88;;
50363;SDS011;36272;59.400;17.982;2022-08-19T22:06:16;30.98;;;14.80;;
50363;SDS011;36272;59.400;17.982;2022-08-19T22:11:17;26.65;;;14.43;;
50363;SDS011;36272;59.400;17.982;2022-08-19T22:16:19;27.23;;;15.05;;
50363;SDS011;36272;59.400;17.982;2022-08-19T22:21:21;22.98;;;13.93;;
50363;SDS011;36272;59.400;17.982;2022-08-19T22:26:23;26.98;;;15.35;;
50363;SDS011;36272;59.400;17.982;2022-08-19T22:31:24;26.75;;;14.25;;
50363;SDS011;36272;59.400;17.982;2022-08-19T22:36:26;28.92;;;14.57;;
50363;SDS011;36272;59.400;17.982;2022-08-19T22:41:28;25.85;;;14.02;;
50363;SDS011;36272;59.400;17.982;2022-08-19T22:46:29;25.17;;;13.30;;
50363;SDS011;36272;59.400;17.982;2022-08-19T22:51:33;25.23;;;14.68;;
50363;SDS011;36272;59.400;17.982;2022-08-19T22:56:53;23.10;;;13.63;;
50363;SDS011;36272;59.400;17.982;2022-08-19T23:01:55;27.85;;;14.32;;
50363;SDS011;36272;59.400;17.982;2022-08-19T23:06:57;22.95;;;13.10;;
50363;SDS011;36272;59.400;17.982;2022-08-19T23:11:58;26.27;;;14.10;;
50363;SDS011;36272;59.400;17.982;2022-08-19T23:17:00;28.40;;;14.15;;
50363;SDS011;36272;59.400;17.982;2022-08-19T23:22:02;27.75;;;14.68;;
50363;SDS011;36272;59.400;17.982;2022-08-19T23:27:05;21.67;;;13.52;;
50363;SDS011;36272;59.400;17.982;2022-08-19T23:32:25;20.42;;;14.00;;
50363;SDS011;36272;59.400;17.982;2022-08-19T23:37:27;23.80;;;14.73;;
50363;SDS011;36272;59.400;17.982;2022-08-19T23:42:28;24.95;;;15.15;;
50363;SDS011;36272;59.400;17.982;2022-08-19T23:47:30;27.90;;;14.88;;
50363;SDS011;36272;59.400;17.982;2022-08-19T23:52:32;21.05;;;14.40;;
50363;SDS011;36272;59.400;17.982;2022-08-19T23:57:41;27.42;;;14.25;;
